• Join FlightAware (Why Join?)
  • Login
  • US Flag 
02:24AM EDT


 

Airport Tracker/Info


-or-


 

Live Flight TrackerFlight Track Log ✈ ASQ5941 ✈ 08-Mar-2014 ✈ KAVP - KORD

Flight Track Log - Related Links

Times and Time Zones

All times are in EST time to prevent confusion due to time zone crossing. See the ASQ5941 flight status page for this flight to view local times or setup timezone preferences in your user account.

Time Position Orientation Groundspeed Altitude Reporting Facility
EST Latitude Longitude Course Direction KTS MPH feet Rate Location/Type
04:01PM 41.4353 -75.9540 304° West  Level FlightAware Approximate
04:01PM 41.5164 -75.7661 315° West 219 252 9,300  Level New York Center
04:02PM 41.4898 -76.0475 315° West  Level FlightAware Approximate
04:02PM 41.5636 -75.8308 314° West 234 269 11,100  Level New York Center
04:03PM 41.5504 -76.1346 294° West  Level FlightAware Approximate
04:03PM 41.6031 -75.9308 298° West 263 303 12,000  Level New York Center
04:04PM 41.5941 -76.2380 304° West  Level FlightAware Approximate
04:04PM 41.6319 -76.0331 291° West 289 333 13,300  Level New York Center
04:05PM 41.6606 -76.1381 290° West 306 352 14,400 1,080 Climbing New York Center
04:06PM 41.6894 -76.2347 292° West 311 358 15,500 1,200 Climbing New York Center
04:07PM 41.7211 -76.3594 289° West 316 364 16,900 1,200 Climbing New York Center
04:08PM 41.7531 -76.4736 291° West 321 369 18,000 1,020 Climbing New York Center
04:09PM 41.7814 -76.5761 290° West 321 369 19,000 1,020 Climbing New York Center
04:10PM 41.8153 -76.6903 292° West 327 376 20,100 1,020 Climbing New York Center
04:11PM 41.8469 -76.8072 290° West 334 384 21,100 1,200 Climbing New York Center
04:12PM 41.8753 -76.9069 291° West 334 384 22,400 1,200 Climbing Cleveland Center
04:13PM 41.9069 -77.0225 290° West 334 384 23,400 1,020 Climbing Cleveland Center
04:14PM 41.9394 -77.1411 290° West 334 384 24,500 1,200 Climbing Cleveland Center
04:15PM 41.9706 -77.2583 290° West 334 384 26,000 1,260 Climbing Cleveland Center
04:16PM 42.0067 -77.3939 290° West 327 376 27,200 1,080 Climbing Cleveland Center
04:17PM 42.0378 -77.5056 291° West 321 369 28,300 1,140 Climbing Cleveland Center
04:18PM 42.0681 -77.6172 290° West 321 369 29,600 1,200 Climbing Cleveland Center
04:19PM 42.0972 -77.7256 290° West 311 358 30,900 1,200 Climbing Cleveland Center
04:20PM 42.1267 -77.8328 290° West 309 356 32,200 1,260 Climbing Cleveland Center
04:21PM 42.1542 -77.9383 289° West 302 348 33,600 1,140 Climbing Cleveland Center
04:22PM 42.1819 -78.0403 290° West 293 337 34,600 900 Climbing Cleveland Center
04:23PM 42.2092 -78.1444 289° West 292 336 35,500 660 Climbing Cleveland Center
04:24PM 42.2414 -78.2686 289° West 292 336 36,000 240 Climbing Cleveland Center
04:25PM 42.2700 -78.3806 289° West 306 352 36,000  Level Cleveland Center
04:26PM 42.2986 -78.5008 288° West 326 375 36,000  Level Cleveland Center
04:27PM 42.3306 -78.6256 289° West 343 395 36,000  Level Cleveland Center
04:28PM 42.3617 -78.7536 288° West 353 406 36,000  Level Cleveland Center
04:29PM 42.3981 -78.9039 288° West 367 422 36,000  Level Cleveland Center
04:30PM 42.4086 -79.0308 276° West 370 426 36,000  Level Cleveland Center
04:31PM 42.4167 -79.1661 275° West 367 422 36,000  Level Cleveland Center
04:32PM 42.4272 -79.3283 275° West 365 420 36,000  Level Cleveland Center
04:33PM 42.4364 -79.4636 275° West 367 422 36,000  Level Cleveland Center
04:34PM 42.4450 -79.6008 275° West 368 423 36,000  Level Cleveland Center
04:35PM 42.4533 -79.7375 275° West 368 423 36,000  Level Cleveland Center
04:36PM 42.4611 -79.8750 274° West 368 423 36,000  Level Cleveland Center
04:37PM 42.4689 -80.0361 274° West 369 425 36,000  Level Cleveland Center
04:38PM 42.4781 -80.1756 275° West 369 425 36,000  Level Cleveland Center
04:39PM 42.4858 -80.3147 274° West 369 425 36,000  Level Cleveland Center
04:41PM 42.4925 -80.4528 274° West 368 423 36,000  Level Cleveland Center
04:42PM 42.4989 -80.5894 274° West 365 420 36,000  Level Cleveland Center
04:43PM 42.5067 -80.7297 274° West 369 425 36,000  Level Cleveland Center
04:44PM 42.5106 -80.8672 272° West 366 421 36,000  Level Cleveland Center
04:45PM 42.5158 -81.0047 273° West 365 420 36,000  Level Cleveland Center
04:46PM 42.5194 -81.1425 272° West 364 419 36,000  Level Cleveland Center
04:47PM 42.5236 -81.2786 272° West 364 419 36,000  Level Cleveland Center
04:48PM 42.5417 -81.4361 279° West 362 417 36,000  Level Cleveland Center
04:49PM 42.5569 -81.5717 279° West 362 417 36,000  Level Cleveland Center
04:50PM 42.5725 -81.7075 279° West 362 417 36,000  Level Cleveland Center
04:51PM 42.5858 -81.8303 278° West 368 423 36,000  Level Cleveland Center
04:52PM 42.6047 -81.9994 279° West 375 432 36,000  Level Cleveland Center
04:53PM 42.6197 -82.1408 278° West 378 435 36,000  Level Cleveland Center
04:54PM 42.6347 -82.2803 278° West 377 434 36,000  Level Cleveland Center
04:55PM 42.6494 -82.4194 278° West 376 433 36,000  Level Cleveland Center
04:56PM 42.6644 -82.5606 278° West 380 437 36,000  Level Cleveland Center
04:57PM 42.6778 -82.6947 278° West 364 419 36,000  Level Cleveland Center
04:58PM 42.6917 -82.8300 278° West 364 419 36,000  Level Cleveland Center
04:59PM 42.7086 -82.9969 278° West 371 427 36,000  Level Cleveland Center
05:00PM 42.7214 -83.1361 277° West 372 428 36,000  Level Cleveland Center
05:01PM 42.7328 -83.2711 277° West 366 421 36,000  Level Cleveland Center
05:02PM 42.7428 -83.4047 276° West 358 412 36,000  Level Cleveland Center
05:03PM 42.7528 -83.5403 276° West 360 414 36,000  Level Cleveland Center
05:04PM 42.7636 -83.6783 276° West 366 421 36,000 -840 Level Cleveland Center
05:05PM 42.7761 -83.8467 276° West 371 427 34,400 -1,740 Descending Cleveland Center
05:06PM 42.7856 -83.9814 276° West 367 422 32,500 -1,200 Descending Cleveland Center
05:07PM 42.7947 -84.1111 276° West 352 405 32,000 -300 Descending Cleveland Center
05:08PM 42.8047 -84.2439 276° West 352 405 32,000  Level Cleveland Center
05:09PM 42.8147 -84.3850 276° West 356 410 32,000  Level Cleveland Center
05:10PM 42.8228 -84.5194 275° West 356 410 32,000  Level Cleveland Center
05:11PM 42.8317 -84.6556 275° West 357 411 32,000  Level Cleveland Center
05:12PM 42.8414 -84.7894 276° West 357 411 32,000  Level Cleveland Center
05:13PM 42.8483 -84.9253 274° West 357 411 32,000  Level Cleveland Center
05:14PM 42.8347 -85.0589 262° West 356 410 32,000  Level Cleveland Center
05:15PM 42.8167 -85.2200 261° West 356 410 32,000  Level Cleveland Center
05:16PM 42.8025 -85.3542 262° West 356 410 32,000 -540 Level Cleveland Center
05:17PM 42.7878 -85.4889 262° West 357 411 31,000 -1,320 Descending Cleveland Center
05:18PM 42.7647 -85.6231 257° West 358 412 29,300 -1,740 Descending Cleveland Center
05:19PM 42.7406 -85.7564 256° West 359 413 27,500 -1,860 Descending Cleveland Center
05:20PM 42.7161 -85.8914 256° West 361 415 25,500 -1,980 Descending Cleveland Center
05:22PM 42.6906 -86.0281 256° West 365 420 23,500 -1,920 Descending Cleveland Center
05:23PM 42.6658 -86.1608 256° West 365 420 21,600 -1,740 Descending Cleveland Center
05:24PM 42.6417 -86.2936 256° West 365 420 20,000 -660 Descending Cleveland Center
05:25PM 42.6067 -86.4775 256° West 358 412 20,000  Level Chicago Center
05:26PM 42.5825 -86.6100 256° West 360 414 20,000 -420 Level Chicago Center
05:27PM 42.5533 -86.7592 255° West 366 421 19,200 -1,140 Descending Chicago Center
05:28PM 42.5169 -86.8853 249° West 361 415 17,700 -1,500 Descending Chicago Center
05:29PM 42.4808 -87.0231 250° West 358 412 16,200 -1,500 Descending Chicago Center
05:30PM 42.4458 -87.1431 248° West 346 398 14,700 -1,440 Descending Chicago Center
05:31PM 42.4131 -87.2647 250° West 345 397 13,300 -1,800 Descending Chicago Center
05:32PM 42.3822 -87.3789 250° West 324 373 11,100 -1,200 Descending Chicago Center
05:33PM 42.3467 -87.5047 249° West 327 376 10,900 -240 Descending Chicago Center
05:34PM 42.2711 -87.6081 225° Southwest 345 397 10,700 -720 Descending Chicago Center
05:35PM 42.2100 -87.6722 218° Southwest 276 318 9,500 -840 Descending Chicago Center
05:36PM 42.1506 -87.7131 207° Southwest 245 282 9,000 -360 Descending Chicago Center
05:37PM 42.0778 -87.7375 194° South 250 288 8,800 -540 Descending Chicago Center
05:38PM 42.0167 -87.7500 189° South 247 284 8,100 -420 Descending Chicago TRACON
05:39PM 41.9667 -87.7833 206° Southwest 250 288 8,100  Level Chicago TRACON
05:40PM 41.9167 -87.8333 217° Southwest 229 264 8,100  Level Chicago TRACON
05:41PM 41.9000 -87.9000 251° West 224 258 8,100  Level Chicago TRACON
05:42PM 41.8833 -87.9833 255° West 246 283 8,100 -300 Level Chicago TRACON
05:43PM 41.8833 -88.0667 270° West 228 262 7,600 -960 Descending Chicago TRACON
05:44PM 41.8833 -88.1500 270° West 239 275 6,200 -840 Descending Chicago TRACON
05:45PM 41.8833 -88.2333 270° West 225 259 6,100 -180 Descending Chicago TRACON
05:46PM 41.8836 -88.2853 270° West 238 274 6,000 -720 Descending Chicago Center
05:47PM 41.8847 -88.3764 271° West 243 280 5,000 -540 Descending Chicago Center
05:48PM 41.8869 -88.4725 272° West 241 277 5,000  Level Chicago Center
05:49PM 41.9033 -88.5503 286° West 236 272 5,100  Climbing Chicago Center
05:50PM 41.9583 -88.5156 25° Northeast 234 269 5,000 -60 Descending Chicago Center
05:51PM 41.9631 -88.4342 86° East 223 257 5,000  Level Chicago Center
05:52PM 41.9636 -88.3522 89° East 219 252 5,000  Level Chicago Center
05:53PM 41.9636 -88.2625 90° East 223 257 5,000 -300 Level Chicago Center
05:54PM 41.9642 -88.1794 89° East 222 255 4,500 -960 Descending Chicago Center
05:55PM 41.9650 -88.0881 89° East 227 261 3,100 -1,200 Descending Chicago Center
05:56PM 41.9647 -88.0217 90° East 185 213 2,100 -900 Descending Chicago Center
05:57PM 41.9650 -87.9731 90° East 134 154 1,300 -660 Descending Chicago Center
05:58PM 41.9650 -87.9283 90° East 127 146 800 -540 Descending Chicago Center